Aérodrome :
LOGIN :

S'inscrire | Disclaimer

   EN    FR    IT 

 










Légende :    VFR   VFR Marginal   IFR   IFR Intensif   IFR Très Intensif
Visi : 
Plafond : 
>= 8 km
>= 3000ft
5 à 8 km
1000 à 3000 ft
1500m à 5 km
500 à 1000 ft
800 à 1500m
200 à 500 ft
< 800m
< 200 ft
Symboles :   Orages  Brouillard  Fortes neiges  Fortes précipitations  Vent > 20 kt
SIGMETs :   Divers  Orages  Givrage  Turbulence  Onde Orograph.  Cendres Volcan.







- Altitude de l'aérodrome : 90 ft
- Code IATA : NTE
- Voir les cartes d'approche


LFRS - Nantes

DERNIER METAR :
  • 171030Z AUTO 05008KT 360V080 9999 OVC013 18/15 Q1021 BECMG NSC

METARs EXPIRÉS :
  • 171000Z AUTO 07010KT 9999 OVC011 17/14 Q1021 BECMG NSC
  • 170930Z AUTO 07010KT 9999 OVC011 17/14 Q1021 BECMG NSC
  • 170900Z AUTO 04008KT 360V080 9999 OVC010 17/15 Q1021 BECMG NSC
  • 170830Z AUTO 05009KT 010V080 9999 OVC008 16/14 Q1021 BECMG NSC
  • 170800Z AUTO 05008KT 360V070 9999 OVC007 16/14 Q1021 BECMG NSC

TAF TAF LFRS
Valide du 17 à 06h jusqu'au 18 à 12h UTC


170500Z 1706/1812 04010KT 9999 BKN008
PROB30
TEMPO 1706/1708 4500 BR BKN003
BECMG 1708/1710 CAVOK
PROB30
TEMPO 1806/1812 05015G25KT
ATIS : +33 2 40 05 12 74
Pas de NOTAMs connus pour ce terrain.



MET'MAP, la Météo Aéronautique d'un coup d'oeil ! - Copyright ORBIFLY Décembre 2007 - Disclaimer

ORBIFLY MET'MAP TEAM :

Programmation & Développement : Alexandra Zaïnal
Conception & Développement : Baudouin d'Aumeries
Co-Programmation & Développement : Marc-Olivier Méhu
Soutien technique & logistique : Manuel Goepfert

Contact : metmap@orbifly.com




SOURCES & CREDITS :

   NOAA